KCNM/CNM METAR and TAF weather

Enter ICAO airport designator
Station Type Date Time Source
KCNM METAR 2020/09/27 00:53 UTC NOAA

KCNM 270053Z AUTO 25011KT 10SM CLR 34/00 A2979 RMK AO2 SLP032 T03390000


Station Type Date Time Source
KCNM Decoded METAR 2020/09/27 00:53 UTC NOAA

CARLSBAD CAVERN CITY, NM, United States (KCNM) 32-20N 104-16W 985M
Sep 26, 2020 - 08:53 PM EDT / 2020.09.27 0053 UTC
Wind: from the WSW (250 degrees) at 13 MPH (11 KT):0
Visibility: 10 mile(s):0
Sky conditions: clear
Temperature: 93.0 F (33.9 C)
Dew Point: 32.0 F (0.0 C)
Relative Humidity: 11%
Pressure (altimeter): 29.79 in. Hg (1008 hPa)
ob: KCNM 270053Z AUTO 25011KT 10SM CLR 34/00 A2979 RMK AO2 SLP032 T03390000
cycle: 1

Station Type Date Time Source
KCNM TAF 2020/09/26 18:22 UTC NOAA

TAF KCNM 261720Z 2618/2718 30009KT P6SM SKC
AMD NOT SKED

Example: see airport list